Time;durP1;ratioP1;P1;durP2;ratioP2;P2;SDS_P1;SDS_P2;PMS_P1;PMS_P2;Temp;Humidity;BMP_temperature;BMP_pressure;BME280_temperature;BME280_humidity;BME280_pressure;Samples;Min_cycle;Max_cycle;Signal;HPM_P1;HPM_P2
2023/09/27 00:00:01;;;;;;;13.45;7.95;;;;;;;;;;7368470;19;20046;-69
2023/09/27 00:02:27;;;;;;;10.55;7.88;;;;;;;;;;7361484;19;20031;-69
2023/09/27 00:04:53;;;;;;;11.35;7.13;;;;;;;;;;7390185;19;20101;-69
2023/09/27 00:07:18;;;;;;;11.07;6.95;;;;;;;;;;7368407;19;20499;-69
2023/09/27 00:09:43;;;;;;;16.05;7.35;;;;;;;;;;7368398;19;20021;-68
2023/09/27 00:12:09;;;;;;;9.70;6.57;;;;;;;;;;7366351;19;20010;-68
2023/09/27 00:14:34;;;;;;;11.23;6.88;;;;;;;;;;7367291;19;20410;-68
2023/09/27 00:17:00;;;;;;;11.25;7.13;;;;;;;;;;7389667;19;20009;-70
2023/09/27 00:19:25;;;;;;;9.55;6.82;;;;;;;;;;7366992;19;20524;-69
2023/09/27 00:21:51;;;;;;;10.90;6.85;;;;;;;;;;7367247;19;20042;-69
2023/09/27 00:24:16;;;;;;;9.55;6.53;;;;;;;;;;7366797;19;20422;-69
2023/09/27 00:26:42;;;;;;;11.55;7.13;;;;;;;;;;7368000;19;20019;-70
2023/09/27 00:29:07;;;;;;;10.88;7.05;;;;;;;;;;7389647;19;20006;-69
2023/09/27 00:31:32;;;;;;;10.38;7.45;;;;;;;;;;7366370;19;20347;-69
2023/09/27 00:33:58;;;;;;;9.85;7.22;;;;;;;;;;7366929;19;20006;-69
2023/09/27 00:36:23;;;;;;;9.98;6.63;;;;;;;;;;7367691;19;20073;-69
2023/09/27 00:38:49;;;;;;;8.95;6.20;;;;;;;;;;7366908;19;20142;-70
2023/09/27 00:41:14;;;;;;;10.02;7.13;;;;;;;;;;7392626;19;20003;-68
2023/09/27 00:43:39;;;;;;;10.77;6.50;;;;;;;;;;7376777;19;20014;-69
2023/09/27 00:46:06;;;;;;;7.90;5.90;;;;;;;;;;7369367;19;20059;-68
2023/09/27 00:48:35;;;;;;;10.05;6.32;;;;;;;;;;7368557;19;20021;-68
2023/09/27 00:51:02;;;;;;;10.02;6.57;;;;;;;;;;7366370;19;20010;-70
2023/09/27 00:53:32;;;;;;;10.02;6.65;;;;;;;;;;7364941;19;20014;-68
2023/09/27 00:55:57;;;;;;;9.55;6.88;;;;;;;;;;7387671;19;20023;-68
2023/09/27 00:58:24;;;;;;;9.50;6.55;;;;;;;;;;7365476;19;20019;-70
2023/09/27 01:00:50;;;;;;;10.23;6.53;;;;;;;;;;7367309;19;20139;-69
2023/09/27 01:03:16;;;;;;;12.45;6.53;;;;;;;;;;7371605;19;20014;-70
2023/09/27 01:05:42;;;;;;;11.07;6.65;;;;;;;;;;7371720;19;20010;-69
2023/09/27 01:08:08;;;;;;;9.85;6.95;;;;;;;;;;7390816;19;20010;-68
2023/09/27 01:10:34;;;;;;;10.02;6.53;;;;;;;;;;7365325;19;20014;-68
2023/09/27 01:13:00;;;;;;;9.93;6.70;;;;;;;;;;7363115;19;20477;-69
2023/09/27 01:15:25;;;;;;;10.10;6.78;;;;;;;;;;7363961;19;20086;-69
2023/09/27 01:17:58;;;;;;;10.55;7.10;;;;;;;;;;7363442;19;20018;-69
2023/09/27 01:20:24;;;;;;;12.68;7.05;;;;;;;;;;7364013;19;19994;-68
2023/09/27 01:23:07;;;;;;;11.15;8.43;;;;;;;;;;7386981;19;20009;-69
2023/09/27 01:25:37;;;;;;;12.30;8.82;;;;;;;;;;7372890;19;20018;-69
2023/09/27 01:28:09;;;;;;;12.15;7.40;;;;;;;;;;7373162;19;20006;-68
2023/09/27 01:30:36;;;;;;;10.00;6.80;;;;;;;;;;7371905;19;20038;-70
2023/09/27 01:33:05;;;;;;;13.18;7.72;;;;;;;;;;7371100;19;20017;-68
2023/09/27 01:35:35;;;;;;;12.75;7.78;;;;;;;;;;7372469;19;20003;-68
2023/09/27 01:38:02;;;;;;;11.05;7.47;;;;;;;;;;7394129;19;20003;-68
2023/09/27 01:40:30;;;;;;;11.77;7.80;;;;;;;;;;7371234;19;20006;-69
2023/09/27 01:42:57;;;;;;;12.63;7.93;;;;;;;;;;7370579;19;20090;-69
2023/09/27 01:45:23;;;;;;;14.27;8.23;;;;;;;;;;7373464;19;20014;-69
2023/09/27 01:47:49;;;;;;;13.50;8.88;;;;;;;;;;7371668;19;20077;-69
2023/09/27 01:50:14;;;;;;;14.57;9.32;;;;;;;;;;7392884;19;19999;-68
2023/09/27 01:52:40;;;;;;;13.50;8.45;;;;;;;;;;7370678;19;19999;-69
2023/09/27 01:55:05;;;;;;;12.48;8.52;;;;;;;;;;7372904;19;20010;-69
2023/09/27 01:57:30;;;;;;;15.18;10.15;;;;;;;;;;7372706;19;20011;-69
2023/09/27 01:59:56;;;;;;;14.60;9.57;;;;;;;;;;7373044;19;20066;-69
2023/09/27 02:02:21;;;;;;;14.10;9.98;;;;;;;;;;7370733;19;20032;-69
2023/09/27 02:04:47;;;;;;;16.38;10.40;;;;;;;;;;7398373;19;20074;-69
2023/09/27 02:07:12;;;;;;;16.08;10.38;;;;;;;;;;7376295;19;20008;-69
2023/09/27 02:09:37;;;;;;;17.73;9.98;;;;;;;;;;7374321;19;20025;-69
2023/09/27 02:12:03;;;;;;;18.00;10.57;;;;;;;;;;7369110;19;20468;-68
2023/09/27 02:14:28;;;;;;;14.05;9.85;;;;;;;;;;7372576;19;20343;-69
2023/09/27 02:16:54;;;;;;;16.45;10.82;;;;;;;;;;7393017;19;20370;-68
2023/09/27 02:19:19;;;;;;;14.07;9.85;;;;;;;;;;7371017;19;20010;-68
2023/09/27 02:21:44;;;;;;;13.07;8.73;;;;;;;;;;7371016;19;20006;-70
2023/09/27 02:24:09;;;;;;;13.52;8.55;;;;;;;;;;7369225;19;20030;-69
2023/09/27 02:26:36;;;;;;;16.25;10.13;;;;;;;;;;7371223;19;20068;-68
2023/09/27 02:29:01;;;;;;;16.42;10.38;;;;;;;;;;7393237;19;20015;-68
2023/09/27 02:31:26;;;;;;;17.13;11.20;;;;;;;;;;7370225;19;20002;-69
2023/09/27 02:33:52;;;;;;;18.38;10.93;;;;;;;;;;7369169;19;20543;-68
2023/09/27 02:36:17;;;;;;;17.58;11.70;;;;;;;;;;7370149;19;20005;-68
2023/09/27 02:38:43;;;;;;;17.48;12.38;;;;;;;;;;7370222;19;20003;-69
2023/09/27 02:41:08;;;;;;;20.00;12.02;;;;;;;;;;7391519;19;20107;-69
2023/09/27 02:43:33;;;;;;;19.38;12.77;;;;;;;;;;7366649;19;20041;-69
2023/09/27 02:45:59;;;;;;;19.98;13.02;;;;;;;;;;7368904;19;20007;-70
2023/09/27 02:48:24;;;;;;;21.13;12.20;;;;;;;;;;7369915;19;20003;-70
2023/09/27 02:50:52;;;;;;;21.25;13.90;;;;;;;;;;7369689;19;20010;-70
2023/09/27 02:53:17;;;;;;;22.15;13.02;;;;;;;;;;7387532;19;20476;-69
2023/09/27 02:55:43;;;;;;;21.45;13.55;;;;;;;;;;7376663;19;20006;-69
2023/09/27 02:58:08;;;;;;;19.75;12.52;;;;;;;;;;7369664;19;20003;-70
2023/09/27 03:00:34;;;;;;;20.75;13.32;;;;;;;;;;7369664;19;20011;-69
2023/09/27 03:03:00;;;;;;;22.10;12.55;;;;;;;;;;7368499;19;20018;-69
2023/09/27 03:05:26;;;;;;;18.95;12.13;;;;;;;;;;7370336;19;20043;-68
2023/09/27 03:07:51;;;;;;;22.17;12.55;;;;;;;;;;7392202;19;20037;-68
2023/09/27 03:10:18;;;;;;;18.52;11.55;;;;;;;;;;7370175;19;20017;-69
2023/09/27 03:12:46;;;;;;;18.33;12.43;;;;;;;;;;7368797;19;20002;-68
2023/09/27 03:15:12;;;;;;;21.00;11.52;;;;;;;;;;7370697;19;20010;-69
2023/09/27 03:17:43;;;;;;;16.90;11.18;;;;;;;;;;7369933;19;20131;-69
2023/09/27 03:20:15;;;;;;;18.47;11.80;;;;;;;;;;7392075;19;20014;-69
2023/09/27 03:22:44;;;;;;;19.63;11.88;;;;;;;;;;7367860;19;19998;-69
2023/09/27 03:25:09;;;;;;;16.13;10.93;;;;;;;;;;7369781;19;20031;-68
2023/09/27 03:27:36;;;;;;;18.50;10.80;;;;;;;;;;7368568;19;20078;-69
2023/09/27 03:30:01;;;;;;;17.20;11.30;;;;;;;;;;7369132;19;20006;-71
2023/09/27 03:32:27;;;;;;;18.08;12.85;;;;;;;;;;7367929;19;20013;-69
2023/09/27 03:34:52;;;;;;;18.20;12.40;;;;;;;;;;7391410;19;20002;-68
2023/09/27 03:37:18;;;;;;;17.17;11.65;;;;;;;;;;7368734;19;20007;-68
2023/09/27 03:39:43;;;;;;;21.08;11.93;;;;;;;;;;7369265;19;20139;-69
2023/09/27 03:42:09;;;;;;;19.67;11.73;;;;;;;;;;7368267;19;20038;-69
2023/09/27 03:44:35;;;;;;;16.55;11.65;;;;;;;;;;7369162;19;20002;-69
2023/09/27 03:47:01;;;;;;;19.65;11.98;;;;;;;;;;7390414;19;20006;-69
2023/09/27 03:49:26;;;;;;;18.95;12.40;;;;;;;;;;7367960;19;20053;-69
2023/09/27 03:51:51;;;;;;;15.45;11.18;;;;;;;;;;7368847;19;20017;-68
2023/09/27 03:54:17;;;;;;;16.60;11.23;;;;;;;;;;7370509;19;20031;-69
2023/09/27 03:56:42;;;;;;;46.38;26.25;;;;;;;;;;7370239;19;20018;-70
2023/09/27 03:59:07;;;;;;;19.55;12.55;;;;;;;;;;7391248;19;20330;-69
2023/09/27 04:01:33;;;;;;;17.00;11.10;;;;;;;;;;7364376;19;20386;-68
2023/09/27 04:03:58;;;;;;;16.65;10.77;;;;;;;;;;7367587;19;20010;-68
2023/09/27 04:06:24;;;;;;;19.38;11.30;;;;;;;;;;7362174;19;20006;-68
2023/09/27 04:08:50;;;;;;;15.38;10.45;;;;;;;;;;7365183;19;20025;-69
2023/09/27 04:11:16;;;;;;;37.70;25.48;;;;;;;;;;7388194;19;20006;-69
2023/09/27 04:13:41;;;;;;;26.70;18.30;;;;;;;;;;7359542;19;20010;-69
2023/09/27 04:16:06;;;;;;;17.48;11.25;;;;;;;;;;7367112;19;20388;-70
2023/09/27 04:18:32;;;;;;;18.33;10.75;;;;;;;;;;7365233;19;20007;-70
2023/09/27 04:21:07;;;;;;;18.30;10.68;;;;;;;;;;7368136;19;20012;-69
2023/09/27 04:23:33;;;;;;;14.55;10.02;;;;;;;;;;7366323;19;20006;-71
2023/09/27 04:25:59;;;;;;;16.02;10.63;;;;;;;;;;7389220;19;20765;-68
2023/09/27 04:28:25;;;;;;;17.05;10.98;;;;;;;;;;7368182;19;20006;-70
2023/09/27 04:30:50;;;;;;;15.95;10.73;;;;;;;;;;7367766;19;20092;-69
2023/09/27 04:33:16;;;;;;;18.88;10.07;;;;;;;;;;7367090;19;20059;-69
2023/09/27 04:35:42;;;;;;;25.08;11.35;;;;;;;;;;7367067;19;20424;-68
2023/09/27 04:38:09;;;;;;;20.42;12.13;;;;;;;;;;7386388;19;20011;-70
2023/09/27 04:40:35;;;;;;;18.67;12.65;;;;;;;;;;7364699;19;20792;-69
2023/09/27 04:43:00;;;;;;;18.65;11.55;;;;;;;;;;7362541;19;20017;-68
2023/09/27 04:45:25;;;;;;;17.50;12.50;;;;;;;;;;7365700;19;20014;-69
2023/09/27 04:47:52;;;;;;;18.85;11.50;;;;;;;;;;7364291;19;20078;-69
2023/09/27 04:50:17;;;;;;;21.10;12.43;;;;;;;;;;7384410;19;20016;-69
2023/09/27 04:52:43;;;;;;;18.15;11.63;;;;;;;;;;7362901;19;20532;-69
2023/09/27 04:55:09;;;;;;;16.30;11.43;;;;;;;;;;7366076;19;20010;-67
2023/09/27 04:57:34;;;;;;;19.70;12.93;;;;;;;;;;7367453;19;20006;-67
2023/09/27 05:00:00;;;;;;;18.50;12.50;;;;;;;;;;7368907;19;20409;-64
2023/09/27 05:02:27;;;;;;;22.63;12.82;;;;;;;;;;7366946;19;20487;-67
2023/09/27 05:04:52;;;;;;;18.67;12.10;;;;;;;;;;7390804;19;20562;-66
2023/09/27 05:07:19;;;;;;;19.75;12.32;;;;;;;;;;7371109;19;20011;-67
2023/09/27 05:09:44;;;;;;;20.15;12.38;;;;;;;;;;7369718;19;20010;-66
2023/09/27 05:12:10;;;;;;;17.90;11.55;;;;;;;;;;7366319;19;20003;-66
2023/09/27 05:14:35;;;;;;;15.95;11.57;;;;;;;;;;7370139;19;20006;-68
2023/09/27 05:17:00;;;;;;;18.92;10.93;;;;;;;;;;7389354;19;20019;-67
2023/09/27 05:19:26;;;;;;;18.65;11.23;;;;;;;;;;7367835;19;20475;-68
2023/09/27 05:21:51;;;;;;;17.50;11.50;;;;;;;;;;7360789;19;20021;-67
2023/09/27 05:24:16;;;;;;;16.75;12.10;;;;;;;;;;7359693;19;20010;-67
2023/09/27 05:26:42;;;;;;;23.13;12.90;;;;;;;;;;7365581;19;20025;-68
2023/09/27 05:29:13;;;;;;;20.10;12.88;;;;;;;;;;7387944;19;20007;-68
2023/09/27 05:31:39;;;;;;;19.60;12.05;;;;;;;;;;7365066;19;20015;-68
2023/09/27 05:34:05;;;;;;;19.40;12.77;;;;;;;;;;7364467;19;20002;-68
2023/09/27 05:36:30;;;;;;;20.77;12.52;;;;;;;;;;7366933;19;20018;-67
2023/09/27 05:38:55;;;;;;;21.10;13.15;;;;;;;;;;7353534;19;20039;-68
2023/09/27 05:41:20;;;;;;;23.80;13.50;;;;;;;;;;7364907;19;20011;-67
2023/09/27 05:43:46;;;;;;;26.00;13.32;;;;;;;;;;7384162;19;20010;-68
2023/09/27 05:46:12;;;;;;;21.88;13.70;;;;;;;;;;7365280;19;20007;-71
2023/09/27 05:48:37;;;;;;;19.65;12.80;;;;;;;;;;7364274;19;20011;-67
2023/09/27 05:51:02;;;;;;;19.90;12.88;;;;;;;;;;7365292;19;20075;-67
2023/09/27 05:53:28;;;;;;;16.98;12.13;;;;;;;;;;7362882;19;20003;-66
2023/09/27 05:55:54;;;;;;;18.38;12.98;;;;;;;;;;7386842;19;20110;-67
2023/09/27 05:58:20;;;;;;;18.90;12.77;;;;;;;;;;7363790;19;20003;-67
2023/09/27 06:00:47;;;;;;;18.98;11.07;;;;;;;;;;7365349;19;20018;-67
2023/09/27 06:03:13;;;;;;;19.02;11.57;;;;;;;;;;7372791;19;20033;-67
2023/09/27 06:05:39;;;;;;;20.20;11.93;;;;;;;;;;7372099;19;20880;-68
2023/09/27 06:08:05;;;;;;;19.50;13.23;;;;;;;;;;7392433;19;20003;-67
2023/09/27 06:10:30;;;;;;;16.75;12.02;;;;;;;;;;7373028;19;20127;-67
2023/09/27 06:12:55;;;;;;;20.25;13.02;;;;;;;;;;7370319;19;20599;-68
2023/09/27 06:15:21;;;;;;;22.33;12.57;;;;;;;;;;7372619;19;20029;-67
2023/09/27 06:17:47;;;;;;;25.25;13.35;;;;;;;;;;7371474;19;20014;-68
2023/09/27 06:20:19;;;;;;;20.08;12.82;;;;;;;;;;7392068;19;20006;-67
2023/09/27 06:22:48;;;;;;;20.90;12.82;;;;;;;;;;7369541;19;20014;-67
2023/09/27 06:25:14;;;;;;;22.73;14.38;;;;;;;;;;7369113;19;20346;-68
2023/09/27 06:27:40;;;;;;;21.60;14.25;;;;;;;;;;7371040;19;20077;-67
2023/09/27 06:30:07;;;;;;;24.85;15.02;;;;;;;;;;7371397;19;20072;-66
2023/09/27 06:32:34;;;;;;;22.50;14.75;;;;;;;;;;7369618;19;20003;-68
2023/09/27 06:34:59;;;;;;;26.20;15.05;;;;;;;;;;7390810;19;20489;-68
2023/09/27 06:37:25;;;;;;;22.98;15.63;;;;;;;;;;7372497;19;20023;-69
2023/09/27 06:39:50;;;;;;;24.05;15.27;;;;;;;;;;7370849;19;20718;-67
2023/09/27 06:42:15;;;;;;;22.67;14.65;;;;;;;;;;7371497;19;20010;-68
2023/09/27 06:44:41;;;;;;;21.30;14.00;;;;;;;;;;7371203;19;20018;-67
2023/09/27 06:47:06;;;;;;;20.20;13.65;;;;;;;;;;7391887;19;20013;-69
2023/09/27 06:49:32;;;;;;;21.58;13.68;;;;;;;;;;7365619;19;20409;-67
2023/09/27 06:51:57;;;;;;;19.85;12.77;;;;;;;;;;7354704;19;20025;-67
2023/09/27 06:54:22;;;;;;;16.92;12.65;;;;;;;;;;7364323;19;20013;-67
2023/09/27 06:56:48;;;;;;;17.67;12.18;;;;;;;;;;7366028;19;20010;-68
2023/09/27 06:59:13;;;;;;;20.48;11.50;;;;;;;;;;7380333;19;20042;-71
2023/09/27 07:01:39;;;;;;;14.90;10.73;;;;;;;;;;7336235;19;20010;-67
2023/09/27 07:04:06;;;;;;;13.60;10.20;;;;;;;;;;7353288;19;20143;-68
2023/09/27 07:06:31;;;;;;;15.85;11.25;;;;;;;;;;7352334;19;20644;-68
2023/09/27 07:08:57;;;;;;;13.55;10.15;;;;;;;;;;7369993;19;20357;-68
2023/09/27 07:11:23;;;;;;;13.10;9.70;;;;;;;;;;7386458;19;20011;-68
2023/09/27 07:13:49;;;;;;;14.40;9.88;;;;;;;;;;7363240;19;20003;-68
2023/09/27 07:16:26;;;;;;;13.60;10.15;;;;;;;;;;7353899;19;20475;-68
2023/09/27 07:18:52;;;;;;;12.75;9.85;;;;;;;;;;7368141;19;20399;-69
2023/09/27 07:21:19;;;;;;;19.10;10.30;;;;;;;;;;7385725;19;20002;-68
2023/09/27 07:23:45;;;;;;;12.32;9.50;;;;;;;;;;7368059;19;19998;-68
2023/09/27 07:26:11;;;;;;;14.07;8.95;;;;;;;;;;7369084;19;20038;-69
2023/09/27 07:28:37;;;;;;;15.90;9.90;;;;;;;;;;7369575;19;20031;-68
2023/09/27 07:31:02;;;;;;;15.15;9.35;;;;;;;;;;7368095;19;20007;-67
2023/09/27 07:33:29;;;;;;;13.63;9.80;;;;;;;;;;7389142;19;20021;-67
2023/09/27 07:35:54;;;;;;;12.68;9.32;;;;;;;;;;7369511;19;20011;-67
2023/09/27 07:38:20;;;;;;;9.90;7.40;;;;;;;;;;7367715;19;20030;-68
2023/09/27 07:40:46;;;;;;;11.85;7.50;;;;;;;;;;7368357;19;20064;-69
2023/09/27 07:43:12;;;;;;;10.75;7.45;;;;;;;;;;7367620;19;20091;-68
2023/09/27 07:45:41;;;;;;;12.73;8.48;;;;;;;;;;7369197;19;20010;-68
2023/09/27 07:48:07;;;;;;;15.65;7.82;;;;;;;;;;7390940;19;20019;-65
2023/09/27 07:50:37;;;;;;;12.77;8.35;;;;;;;;;;7367937;19;20354;-69
2023/09/27 07:53:03;;;;;;;11.27;7.90;;;;;;;;;;7367093;19;20368;-68
2023/09/27 07:55:32;;;;;;;12.40;8.75;;;;;;;;;;7369779;19;20045;-68
2023/09/27 07:57:58;;;;;;;11.30;7.22;;;;;;;;;;7369698;19;20014;-68
2023/09/27 08:00:30;;;;;;;13.10;9.00;;;;;;;;;;7389814;19;20005;-69
2023/09/27 08:02:57;;;;;;;13.80;9.30;;;;;;;;;;7367540;19;20037;-69
2023/09/27 08:05:23;;;;;;;12.55;9.40;;;;;;;;;;7369158;19;20011;-68
2023/09/27 08:07:50;;;;;;;14.77;9.57;;;;;;;;;;7368827;19;20027;-68
2023/09/27 08:10:17;;;;;;;12.52;7.85;;;;;;;;;;7369242;19;20010;-68
2023/09/27 08:12:43;;;;;;;11.45;9.27;;;;;;;;;;7366382;19;20006;-68
2023/09/27 08:15:09;;;;;;;10.85;8.02;;;;;;;;;;7390214;19;20070;-68
2023/09/27 08:17:35;;;;;;;16.65;10.00;;;;;;;;;;7366161;19;20010;-66
2023/09/27 08:20:12;;;;;;;14.45;10.15;;;;;;;;;;7367740;19;20010;-67
2023/09/27 08:22:39;;;;;;;13.18;8.15;;;;;;;;;;7368367;19;20045;-68
2023/09/27 08:25:08;;;;;;;16.02;8.60;;;;;;;;;;7367432;19;20003;-68
2023/09/27 08:27:34;;;;;;;13.23;8.20;;;;;;;;;;7369466;19;20070;-68
2023/09/27 08:30:00;;;;;;;11.75;8.10;;;;;;;;;;7388836;19;20007;-68
2023/09/27 08:32:26;;;;;;;11.23;8.98;;;;;;;;;;7365591;19;20006;-67
2023/09/27 08:34:51;;;;;;;16.52;9.18;;;;;;;;;;7368122;19;20014;-68
2023/09/27 08:37:17;;;;;;;12.85;9.43;;;;;;;;;;7368777;19;20014;-68
2023/09/27 08:39:43;;;;;;;15.20;9.95;;;;;;;;;;7365590;19;20393;-68
2023/09/27 08:42:09;;;;;;;15.20;9.88;;;;;;;;;;7389961;19;20010;-68
2023/09/27 08:44:35;;;;;;;16.70;10.57;;;;;;;;;;7365928;19;20013;-66
2023/09/27 08:47:01;;;;;;;16.05;9.07;;;;;;;;;;7368318;19;20006;-66
2023/09/27 08:49:26;;;;;;;13.90;10.25;;;;;;;;;;7368910;19;20013;-65
2023/09/27 08:51:53;;;;;;;12.40;9.43;;;;;;;;;;7367394;19;20492;-68
2023/09/27 08:54:21;;;;;;;12.63;10.13;;;;;;;;;;7389111;19;20027;-66
2023/09/27 08:56:48;;;;;;;14.93;11.18;;;;;;;;;;7368615;19;20006;-66
2023/09/27 08:59:14;;;;;;;13.90;9.60;;;;;;;;;;7368368;19;20070;-66
2023/09/27 09:01:43;;;;;;;16.25;9.77;;;;;;;;;;7373806;19;20003;-65
2023/09/27 09:04:08;;;;;;;17.10;8.98;;;;;;;;;;7393351;19;20361;-66
2023/09/27 09:06:35;;;;;;;13.77;9.90;;;;;;;;;;7383578;19;20016;-66
2023/09/27 09:09:13;;;;;;;12.88;9.77;;;;;;;;;;7392956;19;20029;-68
2023/09/27 09:11:47;;;;;;;15.25;9.68;;;;;;;;;;7366238;19;20040;-66
2023/09/27 09:14:22;;;;;;;14.52;10.30;;;;;;;;;;7367559;19;20079;-66
2023/09/27 09:16:53;;;;;;;13.32;9.75;;;;;;;;;;7367453;19;20069;-67
2023/09/27 09:19:23;;;;;;;15.05;9.52;;;;;;;;;;7367362;19;20470;-65
2023/09/27 09:21:56;;;;;;;10.65;7.97;;;;;;;;;;7366924;19;20018;-66
2023/09/27 09:24:22;;;;;;;13.07;10.70;;;;;;;;;;7387597;19;20017;-65
2023/09/27 09:27:03;;;;;;;15.77;10.57;;;;;;;;;;7366732;19;20022;-66
2023/09/27 09:29:44;;;;;;;14.00;10.73;;;;;;;;;;7364484;19;20006;-66
2023/09/27 09:32:10;;;;;;;12.95;10.35;;;;;;;;;;7364377;19;20014;-66
2023/09/27 09:34:46;;;;;;;12.77;10.20;;;;;;;;;;7367374;19;20027;-67
2023/09/27 09:37:21;;;;;;;15.68;11.15;;;;;;;;;;7366923;19;20054;-67
2023/09/27 09:39:49;;;;;;;14.70;11.77;;;;;;;;;;7366801;19;20493;-67
2023/09/27 09:42:30;;;;;;;17.08;11.73;;;;;;;;;;7386648;19;20006;-67
2023/09/27 09:45:22;;;;;;;14.93;11.05;;;;;;;;;;7372366;19;20346;-68
2023/09/27 09:47:47;;;;;;;15.30;11.02;;;;;;;;;;7371191;19;20018;-67
2023/09/27 09:50:18;;;;;;;15.15;11.65;;;;;;;;;;7372824;19;20010;-67
2023/09/27 09:52:57;;;;;;;13.85;9.80;;;;;;;;;;7374613;19;20090;-66
2023/09/27 09:55:27;;;;;;;13.75;10.60;;;;;;;;;;7372859;19;20015;-67
2023/09/27 09:58:02;;;;;;;15.07;10.05;;;;;;;;;;7375837;19;20010;-66
2023/09/27 10:00:30;;;;;;;14.55;10.65;;;;;;;;;;7397919;19;20371;-67
2023/09/27 10:03:04;;;;;;;18.58;11.63;;;;;;;;;;7371226;19;20038;-67
2023/09/27 10:05:36;;;;;;;14.07;10.27;;;;;;;;;;7372204;19;20002;-67
2023/09/27 10:08:01;;;;;;;14.88;10.20;;;;;;;;;;7372628;19;20031;-67
2023/09/27 10:10:28;;;;;;;12.23;9.35;;;;;;;;;;7372539;19;20006;-68
2023/09/27 10:12:56;;;;;;;12.15;9.20;;;;;;;;;;7371137;19;20085;-67
2023/09/27 10:15:22;;;;;;;14.68;10.52;;;;;;;;;;7396000;19;19994;-66
2023/09/27 10:17:47;;;;;;;15.30;11.65;;;;;;;;;;7372023;19;20388;-67
2023/09/27 10:20:17;;;;;;;16.80;11.20;;;;;;;;;;7372705;19;20009;-66
2023/09/27 10:22:49;;;;;;;13.23;9.13;;;;;;;;;;7370693;19;20057;-66
2023/09/27 10:25:23;;;;;;;14.20;9.00;;;;;;;;;;7369864;19;20078;-69
2023/09/27 10:28:01;;;;;;;22.83;10.27;;;;;;;;;;7371787;19;20041;-66
2023/09/27 10:30:27;;;;;;;15.15;11.00;;;;;;;;;;7392800;19;20005;-66
2023/09/27 10:33:14;;;;;;;14.82;10.73;;;;;;;;;;7369101;19;20751;-67
2023/09/27 10:35:40;;;;;;;15.45;10.35;;;;;;;;;;7371769;19;20006;-67
2023/09/27 10:38:09;;;;;;;15.50;10.07;;;;;;;;;;7370585;19;20010;-67
2023/09/27 10:40:42;;;;;;;15.23;9.75;;;;;;;;;;7372253;19;20006;-66
2023/09/27 10:43:07;;;;;;;12.60;8.48;;;;;;;;;;7370260;19;20017;-67
2023/09/27 10:45:33;;;;;;;18.30;11.57;;;;;;;;;;7371753;19;20007;-68
2023/09/27 10:48:20;;;;;;;15.13;10.57;;;;;;;;;;7393173;19;20017;-67
2023/09/27 10:50:58;;;;;;;15.05;9.63;;;;;;;;;;7371273;19;20022;-67
2023/09/27 10:53:24;;;;;;;16.35;11.00;;;;;;;;;;7369991;19;20003;-66
2023/09/27 10:55:50;;;;;;;38.97;15.00;;;;;;;;;;7368944;19;20006;-67
2023/09/27 10:58:16;;;;;;;20.33;12.05;;;;;;;;;;7371973;19;20006;-66
2023/09/27 11:00:53;;;;;;;16.35;12.55;;;;;;;;;;7371640;19;20534;-68
2023/09/27 11:03:19;;;;;;;19.20;11.55;;;;;;;;;;7390979;19;20347;-66
2023/09/27 11:05:44;;;;;;;16.25;10.77;;;;;;;;;;7371565;19;20031;-66
2023/09/27 11:08:10;;;;;;;22.17;11.18;;;;;;;;;;7369103;19;19998;-66
2023/09/27 11:10:36;;;;;;;17.77;9.75;;;;;;;;;;7369991;19;20007;-66
2023/09/27 11:13:21;;;;;;;14.52;9.70;;;;;;;;;;7369266;19;20013;-66
2023/09/27 11:15:46;;;;;;;12.32;10.20;;;;;;;;;;7370667;19;20011;-67
2023/09/27 11:18:11;;;;;;;13.20;9.43;;;;;;;;;;7393587;19;20003;-67
2023/09/27 11:20:39;;;;;;;9.70;7.75;;;;;;;;;;7370471;19;20011;-67
2023/09/27 11:23:05;;;;;;;12.18;7.22;;;;;;;;;;7369155;19;20006;-67
2023/09/27 11:25:32;;;;;;;16.10;7.60;;;;;;;;;;7370422;19;20002;-66
2023/09/27 11:27:58;;;;;;;11.32;9.30;;;;;;;;;;7371828;19;20017;-67
2023/09/27 11:30:30;;;;;;;15.73;9.32;;;;;;;;;;7392539;19;20023;-67
2023/09/27 11:33:08;;;;;;;11.70;8.80;;;;;;;;;;7369162;19;20691;-67
2023/09/27 11:35:33;;;;;;;14.63;9.55;;;;;;;;;;7370546;19;20019;-67
2023/09/27 11:38:10;;;;;;;16.60;10.00;;;;;;;;;;7365844;19;20011;-66
2023/09/27 11:40:37;;;;;;;12.23;7.50;;;;;;;;;;7367271;19;20016;-66
2023/09/27 11:43:03;;;;;;;11.05;8.70;;;;;;;;;;7368310;19;19999;-66
2023/09/27 11:45:41;;;;;;;13.40;7.43;;;;;;;;;;7391950;19;20058;-66
2023/09/27 11:48:06;;;;;;;10.30;6.85;;;;;;;;;;7369334;19;20017;-67
2023/09/27 11:50:31;;;;;;;13.00;7.47;;;;;;;;;;7369319;19;20359;-67
2023/09/27 11:52:56;;;;;;;10.37;7.43;;;;;;;;;;7369286;19;20013;-67
2023/09/27 11:55:22;;;;;;;10.80;7.93;;;;;;;;;;7368350;19;20240;-67
2023/09/27 11:57:47;;;;;;;10.52;7.60;;;;;;;;;;7368058;19;20231;-67
2023/09/27 12:00:15;;;;;;;10.95;6.82;;;;;;;;;;7388867;19;20051;-67
2023/09/27 12:02:41;;;;;;;8.93;6.38;;;;;;;;;;7365300;19;20515;-67
2023/09/27 12:05:06;;;;;;;12.05;8.05;;;;;;;;;;7368349;19;20002;-67
2023/09/27 12:07:32;;;;;;;10.15;6.80;;;;;;;;;;7366788;19;20450;-67
2023/09/27 12:09:57;;;;;;;10.05;7.00;;;;;;;;;;7368712;19;20528;-67
2023/09/27 12:12:23;;;;;;;9.35;7.22;;;;;;;;;;7385275;19;20520;-67
2023/09/27 12:14:49;;;;;;;9.03;6.43;;;;;;;;;;7369468;19;20078;-67
2023/09/27 12:17:15;;;;;;;11.05;6.07;;;;;;;;;;7368043;19;20260;-66
2023/09/27 12:19:41;;;;;;;7.78;5.40;;;;;;;;;;7368079;19;20002;-67
2023/09/27 12:22:06;;;;;;;8.05;5.55;;;;;;;;;;7366500;19;20037;-67
2023/09/27 12:24:32;;;;;;;6.65;5.30;;;;;;;;;;7357441;19;20018;-68
2023/09/27 12:26:57;;;;;;;7.90;5.43;;;;;;;;;;7389645;19;20647;-66
2023/09/27 12:29:22;;;;;;;8.27;5.07;;;;;;;;;;7368407;19;20002;-66
2023/09/27 12:31:48;;;;;;;11.05;6.10;;;;;;;;;;7367348;19;20006;-67
2023/09/27 12:34:13;;;;;;;8.98;5.47;;;;;;;;;;7366653;19;20368;-66
2023/09/27 12:36:39;;;;;;;8.77;5.22;;;;;;;;;;7365993;19;19998;-67
2023/09/27 12:39:04;;;;;;;7.90;5.35;;;;;;;;;;7389308;19;19998;-66
2023/09/27 12:41:29;;;;;;;8.38;4.38;;;;;;;;;;7368046;19;20501;-67
2023/09/27 12:43:55;;;;;;;7.07;4.20;;;;;;;;;;7367415;19;20007;-67
2023/09/27 12:46:20;;;;;;;6.88;4.03;;;;;;;;;;7368273;19;20275;-67
2023/09/27 12:48:45;;;;;;;6.68;3.97;;;;;;;;;;7369621;19;20564;-67
2023/09/27 12:51:11;;;;;;;7.70;4.13;;;;;;;;;;7390323;19;20002;-67
2023/09/27 12:53:38;;;;;;;7.00;4.43;;;;;;;;;;7367514;19;20042;-67
2023/09/27 12:56:05;;;;;;;6.93;4.10;;;;;;;;;;7368244;19;20085;-67
2023/09/27 12:58:30;;;;;;;6.90;4.32;;;;;;;;;;7365529;19;20420;-67
2023/09/27 13:00:55;;;;;;;5.80;3.63;;;;;;;;;;7367204;19;20023;-68
2023/09/27 13:03:22;;;;;;;5.97;3.80;;;;;;;;;;7388738;19;20003;-67
2023/09/27 13:05:47;;;;;;;7.53;4.30;;;;;;;;;;7373026;19;20291;-66
2023/09/27 13:08:12;;;;;;;8.10;4.67;;;;;;;;;;7382489;19;20003;-66
2023/09/27 13:10:38;;;;;;;13.10;5.13;;;;;;;;;;7384327;19;20323;-66
2023/09/27 13:13:04;;;;;;;6.32;4.15;;;;;;;;;;7381197;19;20006;-67
2023/09/27 13:15:30;;;;;;;7.28;4.43;;;;;;;;;;7384359;19;20006;-67
2023/09/27 13:17:55;;;;;;;6.82;4.90;;;;;;;;;;7378201;19;20002;-67
2023/09/27 13:20:21;;;;;;;8.07;4.70;;;;;;;;;;7373543;19;20006;-67
2023/09/27 13:22:49;;;;;;;6.95;4.70;;;;;;;;;;7371953;19;20007;-67
2023/09/27 13:25:15;;;;;;;8.10;5.28;;;;;;;;;;7372975;19;20472;-67
2023/09/27 13:27:41;;;;;;;8.52;5.65;;;;;;;;;;7374235;19;20010;-67
2023/09/27 13:30:07;;;;;;;9.30;5.05;;;;;;;;;;7396405;19;20010;-68
2023/09/27 13:32:33;;;;;;;8.07;5.05;;;;;;;;;;7371881;19;20437;-66
2023/09/27 13:34:58;;;;;;;7.15;4.50;;;;;;;;;;7374656;19;20011;-66
2023/09/27 13:37:24;;;;;;;6.65;3.90;;;;;;;;;;7374689;19;20007;-67
2023/09/27 13:39:49;;;;;;;7.55;5.40;;;;;;;;;;7375275;19;20445;-67
2023/09/27 13:42:14;;;;;;;7.05;4.72;;;;;;;;;;7394556;19;19995;-66
2023/09/27 13:44:40;;;;;;;6.93;4.67;;;;;;;;;;7372976;19;20006;-66
2023/09/27 13:47:05;;;;;;;8.38;4.95;;;;;;;;;;7372893;19;20264;-66
2023/09/27 13:49:30;;;;;;;10.48;5.57;;;;;;;;;;7371306;19;20006;-68
2023/09/27 13:51:56;;;;;;;7.55;5.40;;;;;;;;;;7371457;19;20022;-67
2023/09/27 13:54:22;;;;;;;7.30;4.70;;;;;;;;;;7395583;19;20005;-68
2023/09/27 13:56:48;;;;;;;10.05;5.53;;;;;;;;;;7364998;19;20002;-68
2023/09/27 13:59:13;;;;;;;7.60;5.45;;;;;;;;;;7366140;19;20078;-68
2023/09/27 14:01:39;;;;;;;6.15;4.03;;;;;;;;;;7368558;19;20014;-67
2023/09/27 14:04:04;;;;;;;7.18;4.80;;;;;;;;;;7368781;19;20025;-69
2023/09/27 14:06:30;;;;;;;8.90;5.35;;;;;;;;;;7378351;19;20007;-67
2023/09/27 14:08:56;;;;;;;6.75;4.35;;;;;;;;;;7379728;19;20358;-68
2023/09/27 14:11:22;;;;;;;6.38;4.50;;;;;;;;;;7365432;19;20015;-68
2023/09/27 14:13:47;;;;;;;8.60;4.20;;;;;;;;;;7367856;19;20008;-68
2023/09/27 14:16:15;;;;;;;6.05;4.03;;;;;;;;;;7368160;19;20011;-68
2023/09/27 14:18:40;;;;;;;7.68;5.13;;;;;;;;;;7367080;19;19998;-67
2023/09/27 14:21:06;;;;;;;7.60;4.38;;;;;;;;;;7389985;19;20189;-68
2023/09/27 14:23:32;;;;;;;6.72;4.65;;;;;;;;;;7366443;19;20467;-68